Time;durP1;ratioP1;P1;durP2;ratioP2;P2;SDS_P1;SDS_P2;PMS_P1;PMS_P2;Temp;Humidity;BMP_temperature;BMP_pressure;BME280_temperature;BME280_humidity;BME280_pressure;Samples;Min_cycle;Max_cycle;Signal;HPM_P1;HPM_P2
2022/07/22 00:00:07;;;;;;;5.25;3.25;;;;;;;;;;5116265;28;20449;-80
2022/07/22 00:02:33;;;;;;;7.82;4.25;;;;;;;;;;5116299;28;20053;-81
2022/07/22 00:04:59;;;;;;;7.32;4.13;;;;;;;;;;5096575;28;20044;-78
2022/07/22 00:07:25;;;;;;;6.22;3.55;;;;;;;;;;5116270;28;20509;-82
2022/07/22 00:09:51;;;;;;;5.68;3.22;;;;;;;;;;5115877;28;20106;-78
2022/07/22 00:12:17;;;;;;;5.15;2.97;;;;;;;;;;5116095;28;20050;-79
2022/07/22 00:14:43;;;;;;;4.80;3.42;;;;;;;;;;5115675;28;20169;-81
2022/07/22 00:17:09;;;;;;;3.60;2.90;;;;;;;;;;5115824;28;20039;-79
2022/07/22 00:19:37;;;;;;;5.38;3.92;;;;;;;;;;5115832;28;20023;-80
2022/07/22 00:22:03;;;;;;;7.70;3.60;;;;;;;;;;5115382;28;20027;-80
2022/07/22 00:24:29;;;;;;;4.55;3.08;;;;;;;;;;5115214;28;20023;-81
2022/07/22 00:26:55;;;;;;;5.18;3.28;;;;;;;;;;5115555;28;20027;-79
2022/07/22 00:29:21;;;;;;;11.00;3.95;;;;;;;;;;5115613;28;20028;-81
2022/07/22 00:31:47;;;;;;;6.80;2.90;;;;;;;;;;5115146;28;20521;-81
2022/07/22 00:34:14;;;;;;;6.10;3.38;;;;;;;;;;5115497;28;20110;-78
2022/07/22 00:36:40;;;;;;;9.15;3.75;;;;;;;;;;5097268;28;20106;-81
2022/07/22 00:39:06;;;;;;;8.00;3.78;;;;;;;;;;5114787;28;20073;-81
2022/07/22 00:41:32;;;;;;;5.05;3.40;;;;;;;;;;5115383;28;20102;-79
2022/07/22 00:44:03;;;;;;;6.63;4.40;;;;;;;;;;5114518;28;20024;-80
2022/07/22 00:46:29;;;;;;;7.53;3.63;;;;;;;;;;5115346;28;20054;-79
2022/07/22 00:48:56;;;;;;;6.65;3.70;;;;;;;;;;5114886;28;20539;-79
2022/07/22 00:51:22;;;;;;;6.65;3.75;;;;;;;;;;5115320;28;20015;-81
2022/07/22 00:53:49;;;;;;;5.65;3.85;;;;;;;;;;5115133;28;20470;-80
2022/07/22 00:56:16;;;;;;;6.22;4.07;;;;;;;;;;5114424;28;20024;-80
2022/07/22 00:58:42;;;;;;;8.10;4.28;;;;;;;;;;5114714;28;20049;-80
2022/07/22 01:01:09;;;;;;;5.80;4.05;;;;;;;;;;5095913;28;20076;-81
2022/07/22 01:03:35;;;;;;;4.25;3.40;;;;;;;;;;5114990;28;20031;-81
2022/07/22 01:06:01;;;;;;;4.90;3.40;;;;;;;;;;5114611;28;20042;-79
2022/07/22 01:08:27;;;;;;;6.97;3.60;;;;;;;;;;5114933;28;20356;-79
2022/07/22 01:10:53;;;;;;;7.80;3.63;;;;;;;;;;5114776;28;20036;-80
2022/07/22 01:13:20;;;;;;;6.55;3.92;;;;;;;;;;5114998;28;20032;-79
2022/07/22 01:15:46;;;;;;;4.80;3.83;;;;;;;;;;5114321;28;20035;-79
2022/07/22 01:18:12;;;;;;;5.55;4.07;;;;;;;;;;5114759;28;20031;-78
2022/07/22 01:20:38;;;;;;;5.93;3.80;;;;;;;;;;5114894;28;20024;-82
2022/07/22 01:23:04;;;;;;;5.93;3.45;;;;;;;;;;5113994;28;20550;-82
2022/07/22 01:25:30;;;;;;;6.47;3.40;;;;;;;;;;5114869;28;20063;-79
2022/07/22 01:27:56;;;;;;;7.30;4.57;;;;;;;;;;5114711;28;20047;-81
2022/07/22 01:30:23;;;;;;;6.10;3.70;;;;;;;;;;5114200;28;20047;-78
2022/07/22 01:32:49;;;;;;;3.92;3.20;;;;;;;;;;5114018;28;20031;-77
2022/07/22 01:35:15;;;;;;;7.07;3.80;;;;;;;;;;5114486;28;20028;-81
2022/07/22 01:37:41;;;;;;;6.80;4.28;;;;;;;;;;5114552;28;20031;-78
2022/07/22 01:40:07;;;;;;;7.53;4.10;;;;;;;;;;5114326;28;20024;-80
2022/07/22 01:42:33;;;;;;;6.45;3.83;;;;;;;;;;5114369;28;20028;-80
2022/07/22 01:44:59;;;;;;;5.88;3.92;;;;;;;;;;5114250;28;20039;-81
2022/07/22 01:47:25;;;;;;;5.55;4.07;;;;;;;;;;5113980;28;20038;-79
2022/07/22 01:49:52;;;;;;;6.63;3.90;;;;;;;;;;5113770;28;20077;-79
2022/07/22 01:52:18;;;;;;;6.80;3.90;;;;;;;;;;5113969;28;20047;-80
2022/07/22 01:54:44;;;;;;;7.70;3.78;;;;;;;;;;5113263;28;20026;-79
2022/07/22 01:57:10;;;;;;;6.60;4.30;;;;;;;;;;5114153;28;20027;-79
2022/07/22 01:59:36;;;;;;;7.45;4.22;;;;;;;;;;5113785;28;20024;-79
2022/07/22 02:02:02;;;;;;;7.05;3.47;;;;;;;;;;5113965;28;20102;-80
2022/07/22 02:04:28;;;;;;;5.00;3.85;;;;;;;;;;5113582;28;20039;-80
2022/07/22 02:06:54;;;;;;;4.93;3.88;;;;;;;;;;5113762;28;20027;-79
2022/07/22 02:09:20;;;;;;;6.80;3.53;;;;;;;;;;5094770;28;20460;-80
2022/07/22 02:11:47;;;;;;;4.95;3.25;;;;;;;;;;5113557;28;20473;-80
2022/07/22 02:14:13;;;;;;;6.00;3.83;;;;;;;;;;5113398;28;20028;-79
2022/07/22 02:16:39;;;;;;;5.53;3.67;;;;;;;;;;5113387;28;20020;-81
2022/07/22 02:19:05;;;;;;;8.48;3.90;;;;;;;;;;5113626;28;20027;-80
2022/07/22 02:21:31;;;;;;;5.90;3.92;;;;;;;;;;5113350;28;20059;-80
2022/07/22 02:23:57;;;;;;;6.15;3.65;;;;;;;;;;5113448;28;20036;-80
2022/07/22 02:26:23;;;;;;;5.78;3.80;;;;;;;;;;5112887;28;20032;-80
2022/07/22 02:28:49;;;;;;;6.38;3.40;;;;;;;;;;5113292;28;20534;-81
2022/07/22 02:31:16;;;;;;;6.05;4.15;;;;;;;;;;5113363;28;20055;-79
2022/07/22 02:33:42;;;;;;;6.90;3.38;;;;;;;;;;5113321;28;20110;-78
2022/07/22 02:36:08;;;;;;;4.75;3.50;;;;;;;;;;5113389;28;20546;-80
2022/07/22 02:38:34;;;;;;;5.88;3.83;;;;;;;;;;5113087;28;20019;-79
2022/07/22 02:41:00;;;;;;;4.28;3.10;;;;;;;;;;5095094;28;20376;-81
2022/07/22 02:43:26;;;;;;;7.53;3.75;;;;;;;;;;5112897;28;20028;-81
2022/07/22 02:45:52;;;;;;;6.78;3.97;;;;;;;;;;5112999;28;20039;-79
2022/07/22 02:48:19;;;;;;;9.02;4.05;;;;;;;;;;5113206;28;20489;-80
2022/07/22 02:50:46;;;;;;;6.90;3.80;;;;;;;;;;5112811;28;20024;-80
2022/07/22 02:53:12;;;;;;;7.10;3.78;;;;;;;;;;5113199;28;20031;-80
2022/07/22 02:55:38;;;;;;;5.47;3.83;;;;;;;;;;5112837;28;20088;-79
2022/07/22 02:58:05;;;;;;;5.30;3.83;;;;;;;;;;5112829;28;20050;-80
2022/07/22 03:00:31;;;;;;;8.80;3.80;;;;;;;;;;5112895;28;20424;-80
2022/07/22 03:02:57;;;;;;;7.45;3.72;;;;;;;;;;5112107;28;20420;-80
2022/07/22 03:05:24;;;;;;;7.85;4.10;;;;;;;;;;5112672;28;20047;-80
2022/07/22 03:07:50;;;;;;;5.43;3.75;;;;;;;;;;5112340;28;20023;-80
2022/07/22 03:10:16;;;;;;;6.70;3.90;;;;;;;;;;5112905;28;20027;-80
2022/07/22 03:12:42;;;;;;;5.32;3.83;;;;;;;;;;5112639;28;20061;-80
2022/07/22 03:15:08;;;;;;;11.15;5.15;;;;;;;;;;5112671;28;20772;-80
2022/07/22 03:17:35;;;;;;;8.93;4.25;;;;;;;;;;5112621;28;20039;-79
2022/07/22 03:20:05;;;;;;;6.50;4.15;;;;;;;;;;5112175;28;20027;-79
2022/07/22 03:22:32;;;;;;;8.27;5.20;;;;;;;;;;5112653;28;20023;-79
2022/07/22 03:24:58;;;;;;;9.60;4.28;;;;;;;;;;5112355;28;20068;-79
2022/07/22 03:27:24;;;;;;;7.40;4.25;;;;;;;;;;5112634;28;20027;-81
2022/07/22 03:29:50;;;;;;;7.88;4.25;;;;;;;;;;5112209;28;20035;-80
2022/07/22 03:32:17;;;;;;;8.27;4.75;;;;;;;;;;5112651;28;20031;-78
2022/07/22 03:34:43;;;;;;;8.27;4.22;;;;;;;;;;5112355;28;20023;-81
2022/07/22 03:37:10;;;;;;;8.15;4.20;;;;;;;;;;5112044;28;20031;-80
2022/07/22 03:39:36;;;;;;;6.50;3.88;;;;;;;;;;5112235;28;20032;-80
2022/07/22 03:42:02;;;;;;;7.30;4.18;;;;;;;;;;5112202;28;20024;-80
2022/07/22 03:44:28;;;;;;;6.13;4.00;;;;;;;;;;5112365;28;20391;-79
2022/07/22 03:46:54;;;;;;;7.53;4.28;;;;;;;;;;5112330;28;20035;-79
2022/07/22 03:49:20;;;;;;;9.63;3.92;;;;;;;;;;5112413;28;20028;-80
2022/07/22 03:51:46;;;;;;;9.07;4.53;;;;;;;;;;5112316;28;20047;-80
2022/07/22 03:54:13;;;;;;;10.25;4.88;;;;;;;;;;5112279;28;20028;-79
2022/07/22 03:56:39;;;;;;;11.70;5.75;;;;;;;;;;5111891;28;20032;-79
2022/07/22 03:59:05;;;;;;;11.82;5.57;;;;;;;;;;5093934;28;20031;-80
2022/07/22 04:01:31;;;;;;;12.60;6.43;;;;;;;;;;5112107;28;20035;-80
2022/07/22 04:03:57;;;;;;;22.20;16.00;;;;;;;;;;5112071;28;20385;-79
2022/07/22 04:06:23;;;;;;;10.65;5.55;;;;;;;;;;5093960;28;20039;-79
2022/07/22 04:08:50;;;;;;;13.63;5.95;;;;;;;;;;5112481;28;20028;-80
2022/07/22 04:11:16;;;;;;;14.43;5.65;;;;;;;;;;5112001;28;20032;-80
2022/07/22 04:13:42;;;;;;;10.18;5.57;;;;;;;;;;5111980;28;20541;-80
2022/07/22 04:16:08;;;;;;;14.43;5.82;;;;;;;;;;5112096;28;20028;-80
2022/07/22 04:18:34;;;;;;;10.68;7.38;;;;;;;;;;5113414;28;20031;-79
2022/07/22 04:21:00;;;;;;;10.07;6.65;;;;;;;;;;5115940;28;20400;-79
2022/07/22 04:23:26;;;;;;;7.72;5.30;;;;;;;;;;5116098;28;20104;-79
2022/07/22 04:25:52;;;;;;;7.28;4.78;;;;;;;;;;5115852;28;20039;-79
2022/07/22 04:28:19;;;;;;;5.78;3.70;;;;;;;;;;5115681;28;20031;-79
2022/07/22 04:30:45;;;;;;;7.50;4.57;;;;;;;;;;5115516;28;20141;-78
2022/07/22 04:33:11;;;;;;;7.38;3.78;;;;;;;;;;5097170;28;20076;-80
2022/07/22 04:35:37;;;;;;;5.43;4.20;;;;;;;;;;5115829;28;20031;-79
2022/07/22 04:38:03;;;;;;;6.97;4.28;;;;;;;;;;5115450;28;20116;-80
2022/07/22 04:40:29;;;;;;;6.18;4.00;;;;;;;;;;5115398;28;20023;-80
2022/07/22 04:42:55;;;;;;;7.93;4.28;;;;;;;;;;5115510;28;20364;-82
2022/07/22 04:45:21;;;;;;;9.32;4.60;;;;;;;;;;5115079;28;20040;-79
2022/07/22 04:47:47;;;;;;;7.45;4.45;;;;;;;;;;5115668;28;20222;-79
2022/07/22 04:50:14;;;;;;;6.22;4.28;;;;;;;;;;5115246;28;20027;-81
2022/07/22 04:52:40;;;;;;;11.20;4.55;;;;;;;;;;5115268;28;20058;-79
2022/07/22 04:55:06;;;;;;;9.70;5.28;;;;;;;;;;5115272;28;20466;-80
2022/07/22 04:57:32;;;;;;;9.27;5.03;;;;;;;;;;5115304;28;20024;-80
2022/07/22 04:59:58;;;;;;;19.02;10.98;;;;;;;;;;5115012;28;20031;-79
2022/07/22 05:02:24;;;;;;;8.25;5.30;;;;;;;;;;5115137;28;20055;-80
2022/07/22 05:04:51;;;;;;;9.05;4.50;;;;;;;;;;5115190;28;20028;-82
2022/07/22 05:07:17;;;;;;;8.55;4.35;;;;;;;;;;5115010;28;20035;-78
2022/07/22 05:09:43;;;;;;;6.30;3.85;;;;;;;;;;5115099;28;20024;-80
2022/07/22 05:12:09;;;;;;;7.72;4.40;;;;;;;;;;5114957;28;20031;-86
2022/07/22 05:14:35;;;;;;;29.10;5.82;;;;;;;;;;5096384;28;20379;-81
2022/07/22 05:17:01;;;;;;;7.35;4.10;;;;;;;;;;5108419;28;20040;-80
2022/07/22 05:19:27;;;;;;;6.72;3.88;;;;;;;;;;5094353;28;20366;-81
2022/07/22 05:21:53;;;;;;;8.90;4.07;;;;;;;;;;5094339;28;20020;-81
2022/07/22 05:24:19;;;;;;;7.15;4.75;;;;;;;;;;5094239;28;20024;-80
2022/07/22 05:26:45;;;;;;;7.97;4.18;;;;;;;;;;5106418;28;20060;-81
2022/07/22 05:29:12;;;;;;;6.95;4.35;;;;;;;;;;5114314;28;20074;-83
2022/07/22 05:31:47;;;;;;;53.72;11.43;;;;;;;;;;5088475;28;20131;-82
2022/07/22 05:34:20;;;;;;;8.80;4.60;;;;;;;;;;5071409;28;20027;-80
2022/07/22 05:36:46;;;;;;;11.82;6.43;;;;;;;;;;5089301;28;20471;-79
2022/07/22 05:39:23;;;;;;;10.50;7.50;;;;;;;;;;5077540;28;20054;-81
2022/07/22 05:41:58;;;;;;;8.35;7.03;;;;;;;;;;5069324;28;20028;-81
2022/07/22 05:44:25;;;;;;;27.42;20.52;;;;;;;;;;5093210;28;20054;-80
2022/07/22 05:46:51;;;;;;;12.48;11.18;;;;;;;;;;5103998;28;20122;-77
2022/07/22 05:49:18;;;;;;;9.85;8.32;;;;;;;;;;5092244;28;20111;-79
2022/07/22 05:51:44;;;;;;;8.52;6.90;;;;;;;;;;5093183;28;20143;-79
2022/07/22 05:54:10;;;;;;;10.07;5.60;;;;;;;;;;5092566;28;20020;-78
2022/07/22 05:56:36;;;;;;;8.82;5.68;;;;;;;;;;5093630;28;20474;-80
2022/07/22 05:59:02;;;;;;;6.90;5.10;;;;;;;;;;5092785;28;20051;-77
2022/07/22 06:01:28;;;;;;;8.95;4.75;;;;;;;;;;5093492;28;20024;-79
2022/07/22 06:03:55;;;;;;;10.35;5.20;;;;;;;;;;5093514;28;20096;-79
2022/07/22 06:06:21;;;;;;;7.43;5.50;;;;;;;;;;5093221;28;20046;-80
2022/07/22 06:08:47;;;;;;;7.63;4.30;;;;;;;;;;5092996;28;20024;-79
2022/07/22 06:11:13;;;;;;;6.28;4.57;;;;;;;;;;5090906;28;20057;-82
2022/07/22 06:13:39;;;;;;;8.50;4.95;;;;;;;;;;5093229;28;20028;-79
2022/07/22 06:16:05;;;;;;;9.05;4.35;;;;;;;;;;5092600;28;20043;-80
2022/07/22 06:18:31;;;;;;;6.90;4.13;;;;;;;;;;5093183;28;20050;-79
2022/07/22 06:20:57;;;;;;;8.40;4.15;;;;;;;;;;5093174;28;20023;-79
2022/07/22 06:23:24;;;;;;;23.48;21.10;;;;;;;;;;5092654;28;20434;-80
2022/07/22 06:25:50;;;;;;;14.75;12.02;;;;;;;;;;5093111;28;20394;-79
2022/07/22 06:28:16;;;;;;;11.48;9.00;;;;;;;;;;5090125;28;20170;-79
2022/07/22 06:30:43;;;;;;;20.67;17.45;;;;;;;;;;5088031;28;20052;-79
2022/07/22 06:33:09;;;;;;;9.88;8.52;;;;;;;;;;5091618;28;20383;-80
2022/07/22 06:35:35;;;;;;;14.45;10.50;;;;;;;;;;5092756;28;20439;-79
2022/07/22 06:38:02;;;;;;;30.20;24.23;;;;;;;;;;5092017;28;20068;-79
2022/07/22 06:40:28;;;;;;;13.35;11.95;;;;;;;;;;5092308;28;20024;-80
2022/07/22 06:42:55;;;;;;;17.30;15.65;;;;;;;;;;5092630;28;20020;-80
2022/07/22 06:45:21;;;;;;;10.48;6.70;;;;;;;;;;5092314;28;20036;-79
2022/07/22 06:47:47;;;;;;;29.48;26.83;;;;;;;;;;5092732;28;20024;-80
2022/07/22 06:50:13;;;;;;;16.30;13.65;;;;;;;;;;5085389;28;20391;-78
2022/07/22 06:52:40;;;;;;;7.57;4.25;;;;;;;;;;5090197;28;20494;-81
2022/07/22 06:55:07;;;;;;;9.43;5.30;;;;;;;;;;5084766;28;20031;-78
2022/07/22 06:57:34;;;;;;;7.22;5.22;;;;;;;;;;5092386;28;20028;-77
2022/07/22 07:00:00;;;;;;;12.57;6.60;;;;;;;;;;5089904;28;20442;-77
2022/07/22 07:02:26;;;;;;;9.98;4.38;;;;;;;;;;5091696;28;20095;-80
2022/07/22 07:04:52;;;;;;;7.97;5.13;;;;;;;;;;5092684;28;20016;-80
2022/07/22 07:07:18;;;;;;;10.05;5.47;;;;;;;;;;5073531;28;20395;-81
2022/07/22 07:09:44;;;;;;;22.52;12.35;;;;;;;;;;5092020;28;20032;-79
2022/07/22 07:12:10;;;;;;;13.45;8.45;;;;;;;;;;5090650;28;20107;-83
2022/07/22 07:14:36;;;;;;;10.15;9.13;;;;;;;;;;5073794;28;20394;-82
2022/07/22 07:17:02;;;;;;;6.78;4.63;;;;;;;;;;5074257;28;20036;-82
2022/07/22 07:19:28;;;;;;;8.65;5.07;;;;;;;;;;5092065;28;20056;-80
2022/07/22 07:21:54;;;;;;;8.68;5.03;;;;;;;;;;5074573;28;20028;-79
2022/07/22 07:24:21;;;;;;;10.00;6.88;;;;;;;;;;5091786;28;20093;-81
2022/07/22 07:26:47;;;;;;;6.90;5.47;;;;;;;;;;5091950;28;20108;-85
2022/07/22 07:29:13;;;;;;;10.05;7.20;;;;;;;;;;5092107;28;20491;-84
2022/07/22 07:31:39;;;;;;;9.15;4.47;;;;;;;;;;5103104;28;20055;-85
2022/07/22 07:34:05;;;;;;;6.38;4.53;;;;;;;;;;5091974;28;20034;-82
2022/07/22 07:36:31;;;;;;;10.00;4.32;;;;;;;;;;5084714;28;20028;-79
2022/07/22 07:38:57;;;;;;;5.78;3.88;;;;;;;;;;5069979;28;20028;-85
2022/07/22 07:41:23;;;;;;;8.35;5.28;;;;;;;;;;5090329;28;20472;-84
2022/07/22 07:43:49;;;;;;;5.45;4.38;;;;;;;;;;5091853;28;20056;-85
2022/07/22 07:46:16;;;;;;;7.88;3.90;;;;;;;;;;5089700;28;20039;-82
2022/07/22 07:48:42;;;;;;;7.63;4.57;;;;;;;;;;5089809;28;20024;-79
2022/07/22 07:51:08;;;;;;;16.88;4.90;;;;;;;;;;5108047;28;20502;-83
2022/07/22 07:53:34;;;;;;;6.78;5.18;;;;;;;;;;5113328;28;20024;-81
2022/07/22 07:56:00;;;;;;;6.53;3.70;;;;;;;;;;5115949;28;20031;-83
2022/07/22 07:58:26;;;;;;;6.88;5.18;;;;;;;;;;5115516;28;20027;-84
2022/07/22 08:00:53;;;;;;;31.95;28.63;;;;;;;;;;5116452;28;20020;-83
2022/07/22 08:03:19;;;;;;;10.57;4.60;;;;;;;;;;5116104;28;20416;-80
2022/07/22 08:05:45;;;;;;;5.63;3.72;;;;;;;;;;5115768;28;20042;-85
2022/07/22 08:08:11;;;;;;;6.53;4.15;;;;;;;;;;5115944;28;20077;-79
2022/07/22 08:10:37;;;;;;;5.43;3.72;;;;;;;;;;5112357;28;20445;-81
2022/07/22 08:13:03;;;;;;;4.80;3.42;;;;;;;;;;5093735;28;20032;-79
2022/07/22 08:15:30;;;;;;;5.70;3.78;;;;;;;;;;5094071;28;20032;-81
2022/07/22 08:17:56;;;;;;;11.43;3.88;;;;;;;;;;5093091;28;20060;-79
2022/07/22 08:20:23;;;;;;;8.27;3.60;;;;;;;;;;5093847;28;20030;-78
2022/07/22 08:22:50;;;;;;;8.75;4.20;;;;;;;;;;5093654;28;20482;-78
2022/07/22 08:25:16;;;;;;;6.15;3.90;;;;;;;;;;5094895;28;20494;-76
2022/07/22 08:27:42;;;;;;;8.23;3.95;;;;;;;;;;5088397;28;20032;-80
2022/07/22 08:30:08;;;;;;;6.78;3.45;;;;;;;;;;5091898;28;20052;-81
2022/07/22 08:32:35;;;;;;;11.32;5.80;;;;;;;;;;5095445;28;20024;-80
2022/07/22 08:35:01;;;;;;;6.78;4.63;;;;;;;;;;5098381;28;20024;-84
2022/07/22 08:37:27;;;;;;;6.47;3.70;;;;;;;;;;5087512;28;20363;-88
2022/07/22 08:39:53;;;;;;;6.78;4.05;;;;;;;;;;5106429;28;20043;-81
2022/07/22 08:42:24;;;;;;;6.30;3.88;;;;;;;;;;5115686;27;20051;-80
2022/07/22 08:44:50;;;;;;;5.15;3.25;;;;;;;;;;5108536;28;20034;-80
2022/07/22 08:47:20;;;;;;;7.32;3.92;;;;;;;;;;5099183;28;20098;-83
2022/07/22 08:49:46;;;;;;;9.45;4.00;;;;;;;;;;5097509;28;20030;-81
2022/07/22 08:52:12;;;;;;;11.98;4.10;;;;;;;;;;5114007;28;20024;-79
2022/07/22 08:54:38;;;;;;;8.68;4.57;;;;;;;;;;5106407;28;20047;-82
2022/07/22 08:57:04;;;;;;;5.80;3.83;;;;;;;;;;5104652;28;20160;-78
2022/07/22 08:59:31;;;;;;;9.60;4.53;;;;;;;;;;5103120;28;20540;-82
2022/07/22 09:02:16;;;;;;;9.50;5.60;;;;;;;;;;5089800;28;20066;-80
2022/07/22 09:04:53;;;;;;;10.68;4.40;;;;;;;;;;5110023;28;20348;-83
2022/07/22 09:07:33;;;;;;;6.38;3.92;;;;;;;;;;5092804;28;20031;-81
2022/07/22 09:09:59;;;;;;;9.25;5.45;;;;;;;;;;5093991;28;20058;-78
2022/07/22 09:12:28;;;;;;;9.95;5.75;;;;;;;;;;5091584;27;20027;-83
2022/07/22 09:14:56;;;;;;;9.57;4.78;;;;;;;;;;5111642;28;20169;-81
2022/07/22 09:17:27;;;;;;;5.97;3.35;;;;;;;;;;5115671;27;20031;-83
2022/07/22 09:19:53;;;;;;;9.32;3.30;;;;;;;;;;5090530;28;20027;-79
2022/07/22 09:22:34;;;;;;;7.32;3.25;;;;;;;;;;5103129;28;20459;-78
2022/07/22 09:25:19;;;;;;;6.97;3.10;;;;;;;;;;5113646;27;20027;-84
2022/07/22 09:27:45;;;;;;;7.05;4.38;;;;;;;;;;5110003;28;20035;-81
2022/07/22 09:30:22;;;;;;;6.05;3.60;;;;;;;;;;5103781;27;20052;-82
2022/07/22 09:32:48;;;;;;;5.70;3.15;;;;;;;;;;5091258;28;20020;-79
2022/07/22 09:35:15;;;;;;;6.03;3.83;;;;;;;;;;5090207;28;20036;-81
2022/07/22 09:37:52;;;;;;;9.50;3.67;;;;;;;;;;5090789;28;20024;-85
2022/07/22 09:40:20;;;;;;;7.40;4.15;;;;;;;;;;5090407;28;20035;-86
2022/07/22 09:42:47;;;;;;;8.57;3.88;;;;;;;;;;5062392;28;20025;-80
2022/07/22 09:45:15;;;;;;;9.45;4.22;;;;;;;;;;5089812;28;20040;-78
2022/07/22 09:47:42;;;;;;;4.88;3.20;;;;;;;;;;5073536;28;20024;-77
2022/07/22 09:50:21;;;;;;;5.97;3.30;;;;;;;;;;5092376;28;20467;-79
2022/07/22 09:52:48;;;;;;;7.65;3.08;;;;;;;;;;5091654;28;20024;-82
2022/07/22 09:55:15;;;;;;;5.78;3.25;;;;;;;;;;5089547;28;20047;-81
2022/07/22 09:57:42;;;;;;;6.82;3.40;;;;;;;;;;5088486;28;20035;-83
2022/07/22 10:00:09;;;;;;;7.28;3.53;;;;;;;;;;5084263;28;20136;-80
2022/07/22 10:02:40;;;;;;;6.43;3.80;;;;;;;;;;5085986;28;20039;-84
2022/07/22 10:05:06;;;;;;;7.55;3.63;;;;;;;;;;5093074;28;20107;-77
2022/07/22 10:07:32;;;;;;;5.68;3.40;;;;;;;;;;5093451;28;20028;-84
2022/07/22 10:09:59;;;;;;;5.78;2.83;;;;;;;;;;5090233;28;20024;-81
2022/07/22 10:12:27;;;;;;;4.97;2.88;;;;;;;;;;5092520;28;20499;-79
2022/07/22 10:14:53;;;;;;;5.45;2.70;;;;;;;;;;5076516;28;20130;-81
2022/07/22 10:17:19;;;;;;;3.97;2.53;;;;;;;;;;5087475;28;20078;-79
2022/07/22 10:19:45;;;;;;;5.45;2.67;;;;;;;;;;5064774;28;20070;-81
2022/07/22 10:22:30;;;;;;;4.13;2.70;;;;;;;;;;5081537;28;20032;-79
2022/07/22 10:25:03;;;;;;;4.80;3.20;;;;;;;;;;5080924;28;20035;-83
2022/07/22 10:27:48;;;;;;;5.07;2.70;;;;;;;;;;5082227;28;20047;-80
2022/07/22 10:30:16;;;;;;;3.60;2.72;;;;;;;;;;5083354;28;20055;-81
2022/07/22 10:32:43;;;;;;;6.88;3.22;;;;;;;;;;5065511;28;20027;-79
2022/07/22 10:35:09;;;;;;;5.13;2.90;;;;;;;;;;5090559;28;20383;-80
2022/07/22 10:40:21;;;;;;;4.70;2.63;;;;;;;;;;5072520;28;20439;-83
2022/07/22 10:43:09;;;;;;;5.82;3.33;;;;;;;;;;5075354;28;20046;-80
2022/07/22 10:45:37;;;;;;;5.47;3.17;;;;;;;;;;5086241;28;20050;-88
2022/07/22 10:48:13;;;;;;;5.40;3.08;;;;;;;;;;5074408;28;20021;-78
2022/07/22 10:50:41;;;;;;;5.38;3.13;;;;;;;;;;5084803;28;20020;-81
2022/07/22 10:53:29;;;;;;;6.90;2.80;;;;;;;;;;5088672;28;20472;-78
2022/07/22 10:56:17;;;;;;;4.57;2.60;;;;;;;;;;5085940;28;20028;-81
2022/07/22 10:58:45;;;;;;;7.20;2.75;;;;;;;;;;5082249;28;20365;-83
2022/07/22 11:01:13;;;;;;;4.82;2.97;;;;;;;;;;5088532;28;20112;-82
2022/07/22 11:03:41;;;;;;;6.15;2.80;;;;;;;;;;5088895;28;20033;-82
2022/07/22 11:06:22;;;;;;;6.45;2.72;;;;;;;;;;5090539;28;20032;-82
2022/07/22 11:08:50;;;;;;;4.70;2.42;;;;;;;;;;5060138;28;20510;-80
2022/07/22 11:11:17;;;;;;;6.72;3.13;;;;;;;;;;5089855;28;20020;-81
2022/07/22 11:13:44;;;;;;;3.95;2.45;;;;;;;;;;5090532;28;20024;-82
2022/07/22 11:16:14;;;;;;;5.97;3.88;;;;;;;;;;5090837;28;20371;-82
2022/07/22 11:18:58;;;;;;;5.43;3.38;;;;;;;;;;5087714;28;20024;-81
2022/07/22 11:21:27;;;;;;;5.82;2.60;;;;;;;;;;5090112;28;20028;-82
2022/07/22 11:23:55;;;;;;;4.40;2.75;;;;;;;;;;5086580;28;21569;-81
2022/07/22 11:26:26;;;;;;;5.93;3.35;;;;;;;;;;5090591;28;20085;-84
2022/07/22 11:28:52;;;;;;;6.05;2.80;;;;;;;;;;5092923;28;20059;-80
2022/07/22 11:31:19;;;;;;;7.13;3.20;;;;;;;;;;5087839;28;20052;-82
2022/07/22 11:33:45;;;;;;;5.30;2.35;;;;;;;;;;5083742;28;20051;-78
2022/07/22 11:36:12;;;;;;;4.90;2.60;;;;;;;;;;5094025;28;20128;-86
2022/07/22 11:38:44;;;;;;;3.67;2.42;;;;;;;;;;5093285;28;20028;-85
2022/07/22 11:41:10;;;;;;;6.63;2.75;;;;;;;;;;5093492;28;20102;-80
2022/07/22 11:43:55;;;;;;;4.82;3.10;;;;;;;;;;5095048;28;20028;-72
2022/07/22 11:46:23;;;;;;;5.85;3.30;;;;;;;;;;5097927;28;20035;-72
2022/07/22 11:48:49;;;;;;;5.72;3.30;;;;;;;;;;5098662;28;20124;-82
2022/07/22 11:51:15;;;;;;;5.68;3.28;;;;;;;;;;5097596;28;20487;-80
2022/07/22 11:53:42;;;;;;;10.35;3.25;;;;;;;;;;5079519;28;20127;-79
2022/07/22 11:56:09;;;;;;;7.90;3.40;;;;;;;;;;5097668;28;20375;-78
2022/07/22 11:58:36;;;;;;;7.50;3.40;;;;;;;;;;5085561;28;20075;-85
2022/07/22 12:01:02;;;;;;;6.32;2.85;;;;;;;;;;5088077;28;20058;-77
2022/07/22 12:03:29;;;;;;;15.57;9.95;;;;;;;;;;5097883;28;20032;-80
2022/07/22 12:05:55;;;;;;;6.40;3.40;;;;;;;;;;5096250;28;20036;-83
2022/07/22 12:08:21;;;;;;;6.85;2.65;;;;;;;;;;5097804;28;20040;-80
2022/07/22 12:10:48;;;;;;;6.40;3.08;;;;;;;;;;5073261;28;20106;-79
2022/07/22 12:13:14;;;;;;;6.60;3.40;;;;;;;;;;5090611;28;20032;-83
2022/07/22 12:15:40;;;;;;;7.13;3.42;;;;;;;;;;5094673;28;20111;-80
2022/07/22 12:18:20;;;;;;;5.05;3.10;;;;;;;;;;5096417;28;20039;-81
2022/07/22 12:20:46;;;;;;;6.82;2.67;;;;;;;;;;5066088;28;20037;-80
2022/07/22 12:23:12;;;;;;;5.70;3.25;;;;;;;;;;5087003;28;20101;-81
2022/07/22 12:25:57;;;;;;;6.45;2.75;;;;;;;;;;5095964;28;20044;-88
2022/07/22 12:28:24;;;;;;;6.32;2.80;;;;;;;;;;5097002;28;20040;-81
2022/07/22 12:30:51;;;;;;;4.35;2.90;;;;;;;;;;5091361;28;20098;-80
2022/07/22 12:33:18;;;;;;;5.10;2.80;;;;;;;;;;5096808;28;20471;-81
2022/07/22 12:35:45;;;;;;;6.88;2.65;;;;;;;;;;5098680;28;20067;-79
2022/07/22 12:38:11;;;;;;;5.30;3.15;;;;;;;;;;5101144;28;20031;-83
2022/07/22 12:40:38;;;;;;;14.38;4.95;;;;;;;;;;5094061;28;20020;-80
2022/07/22 12:43:05;;;;;;;5.38;2.75;;;;;;;;;;5094492;28;20032;-82
2022/07/22 12:45:33;;;;;;;9.63;5.65;;;;;;;;;;5095028;28;20027;-80
2022/07/22 12:48:03;;;;;;;7.07;3.72;;;;;;;;;;5092323;28;20049;-82
2022/07/22 12:50:31;;;;;;;8.55;3.45;;;;;;;;;;5064754;28;20085;-82
2022/07/22 12:53:05;;;;;;;4.70;2.55;;;;;;;;;;5095275;28;20023;-79
2022/07/22 12:55:34;;;;;;;5.88;2.85;;;;;;;;;;5114914;28;20024;-83
2022/07/22 12:58:04;;;;;;;5.22;2.70;;;;;;;;;;5114939;28;20020;-81
2022/07/22 13:00:32;;;;;;;7.97;2.70;;;;;;;;;;5091916;28;20028;-84
2022/07/22 13:02:58;;;;;;;6.65;3.13;;;;;;;;;;5094298;28;20032;-81
2022/07/22 13:05:25;;;;;;;4.10;2.20;;;;;;;;;;5094459;28;20039;-79
2022/07/22 13:07:55;;;;;;;5.13;4.18;;;;;;;;;;5094794;28;20119;-81
2022/07/22 13:10:22;;;;;;;5.68;3.13;;;;;;;;;;5065695;28;20119;-84
2022/07/22 13:12:48;;;;;;;4.45;2.45;;;;;;;;;;5110044;28;20024;-80
2022/07/22 13:15:15;;;;;;;6.88;2.40;;;;;;;;;;5094593;28;20463;-82
2022/07/22 13:17:41;;;;;;;3.42;1.85;;;;;;;;;;5094429;28;20064;-79
2022/07/22 13:20:09;;;;;;;6.53;2.50;;;;;;;;;;5076289;28;20020;-81
2022/07/22 13:22:35;;;;;;;6.40;3.85;;;;;;;;;;5094078;28;20024;-81
2022/07/22 13:25:01;;;;;;;4.07;2.65;;;;;;;;;;5094217;28;20099;-82
2022/07/22 13:27:27;;;;;;;4.07;2.38;;;;;;;;;;5093327;28;20036;-81
2022/07/22 13:29:53;;;;;;;3.85;2.30;;;;;;;;;;5077919;28;20031;-79
2022/07/22 13:32:20;;;;;;;4.30;2.85;;;;;;;;;;5114154;28;20474;-78
2022/07/22 13:34:46;;;;;;;3.28;2.50;;;;;;;;;;5113828;28;20032;-82
2022/07/22 13:37:12;;;;;;;5.03;2.97;;;;;;;;;;5114326;28;20062;-82
2022/07/22 13:39:40;;;;;;;5.90;2.85;;;;;;;;;;5095934;28;20024;-83
2022/07/22 13:42:06;;;;;;;2.92;2.30;;;;;;;;;;5114180;28;20031;-81
2022/07/22 13:44:34;;;;;;;4.10;2.47;;;;;;;;;;5113823;28;20028;-79
2022/07/22 13:47:01;;;;;;;6.35;2.92;;;;;;;;;;5113737;28;20032;-82
2022/07/22 13:49:27;;;;;;;7.25;2.80;;;;;;;;;;5127053;27;20031;-80
2022/07/22 13:51:53;;;;;;;4.95;3.22;;;;;;;;;;5133422;27;20030;-86
2022/07/22 13:54:20;;;;;;;4.32;2.42;;;;;;;;;;5127815;27;20032;-83
2022/07/22 13:56:49;;;;;;;5.63;3.50;;;;;;;;;;5109040;28;20031;-81
2022/07/22 13:59:16;;;;;;;5.32;4.18;;;;;;;;;;5117842;27;20031;-79
2022/07/22 14:01:43;;;;;;;6.53;4.47;;;;;;;;;;5134004;27;20058;-84
2022/07/22 14:04:09;;;;;;;6.65;2.42;;;;;;;;;;5111455;27;20462;-80
2022/07/22 14:06:36;;;;;;;4.05;2.25;;;;;;;;;;5111295;28;20044;-83
2022/07/22 14:09:03;;;;;;;4.78;3.80;;;;;;;;;;5110905;28;20023;-79
2022/07/22 14:11:29;;;;;;;9.55;7.57;;;;;;;;;;5112261;28;20062;-84
2022/07/22 14:13:55;;;;;;;6.35;2.78;;;;;;;;;;5111648;28;20030;-81
2022/07/22 14:19:08;;;;;;;4.03;2.28;;;;;;;;;;5111137;28;20452;-83
2022/07/22 14:21:34;;;;;;;4.10;2.60;;;;;;;;;;5113610;28;20031;-82
2022/07/22 14:24:00;;;;;;;3.80;2.40;;;;;;;;;;5112284;28;20019;-83
2022/07/22 14:26:27;;;;;;;11.73;3.10;;;;;;;;;;5128367;27;20043;-85
2022/07/22 14:28:53;;;;;;;3.53;2.55;;;;;;;;;;5117870;27;20026;-85
2022/07/22 14:31:20;;;;;;;4.03;3.13;;;;;;;;;;5104985;28;20590;-81
2022/07/22 14:33:46;;;;;;;4.40;2.40;;;;;;;;;;5092872;28;20035;-78
2022/07/22 14:36:12;;;;;;;2.88;1.90;;;;;;;;;;5095012;28;20459;-79
2022/07/22 14:38:39;;;;;;;4.65;2.70;;;;;;;;;;5096284;28;20490;-85
2022/07/22 14:41:07;;;;;;;3.25;2.63;;;;;;;;;;5105880;28;20035;-82
2022/07/22 14:43:33;;;;;;;4.32;2.40;;;;;;;;;;5089155;28;20031;-84
2022/07/22 14:46:00;;;;;;;4.95;2.25;;;;;;;;;;5103438;28;20032;-84